Terminal Aerodrome Forecast
Issued by NWS Des Moines, IA

Home | Current Version | Previous Version | Text Only | Print | Product List | Glossary On
Versions: 1 2 3 4 5 6 7 8 9 10 11 12 13 14 15 16 17 18 19 20 21 22 23
000
FTUS43 KDMX 012331
TAFDSM
TAF
KDSM 012331Z 0200/0224 21008KT P6SM SCT160 BKN300
     FM020400 21009KT P6SM FEW040 SCT150
     FM021000 21009KT P6SM VCSH SCT050 BKN300
     FM021400 22014G22KT P6SM FEW150
     FM022300 27011KT P6SM SCT300=

USA.gov is the U.S. government's official web portal to all federal, state and local government web resources and services.